Springfield, Missouri
Current Conditions -  °F | °C
As of 9:52 AM on Monday 24 Nov 2014 (Local Time) from KSGF Reporting Station
Clear Clear  
Wind Chill: 33°   Ceiling: Unl
Heat Index: 42°   Visibility: 10mi
Dew Point: 27°   Wind: 20mph
Humidity: 55%   Direction: 280°W
Pressure: 29.79"   Gusts: 31mph
Location:  37.21°N, 93.29°W
Report Text: KSGF 241552Z 28017G27KT 10SM CLR 06/M03 A2979 RMK AO2 PK WND 27027/1531 SLP090 T00561028
Loading
Personal Weather Stations






























Interactive Weather Map New forecast layout! Learn more

10-Day Weather Forecast

Advertisements
Track Severe Weather on mobile